Brookings, OR

10:24 AM PST on February 28, 2017 (GMT -0800)
Brookings State | | Change Station

Elev 79 ft 42.05 °N, 124.28 °W | Updated 13 minutes ago

Light Rain
Light Rain
43 °F
Feels Like 40 °F
N
5
Wind Variable Wind from SSE

Today
High -- | Low -- °F
--% Chance of Precip.
Yesterday
High -- | Low -- °F
Precip. -- in
Pressure 30.25 in
Visibility 10.0 miles
Clouds Few 600 ft
Mostly Cloudy 3300 ft
Overcast 6000 ft
Windchill 40 °F
Dew Point 41 °F
Humidity 93%
Rainfall 0.19 in
Snow Depth Not available.
6:53 AM 6:06 PM
Waxing Crescent, 6% visible
SPECI KBOK 281811Z AUTO 15004KT 10SM -RA FEW006 BKN033 OVC060 06/05 A3025 RMK AO2 P0000
Pressure 30.25 in
Visibility 10.0 miles
Clouds Few 600 ft
Mostly Cloudy 3300 ft
Overcast 6000 ft
Windchill 40 °F
Dew Point 41 °F
Humidity 93%
Rainfall 0.19 in
Snow Depth Not available.
6:53 AM 6:06 PM
Waxing Crescent, 6% visible
SPECI KBOK 281811Z AUTO 15004KT 10SM -RA FEW006 BKN033 OVC060 06/05 A3025 RMK AO2 P0000

Get Your Daily Forecast Email!

Thanks for signing up!

Be on the lookout for a verification email in your inbox.

You'll start receiving the daily forecast at 8 AM.

×

10-Day Weather Forecast

Almanac

Astronomy

Feb. 28, 2017 Rise Set
Actual Time
Civil Twilight
Nautical Twilight
Astronomical Twilight
Moon
Length of Visible Light
Length of Day
Tomorrow will be .
, % of the Moon is Illuminated

Today's Extremes

State Highs State Lows

Community

WunderPhotos

Upload Photos

1,962,540 photos uploaded!

WunderBlog® & News

Nearby

Air Quality

  Air Quality AQ Index Pollutant
Not available.

Snow Depth

Station Depth Elevation

Earthquake Activity

City Distance Mag. Time & Date
Minimum magnitude displayed is 2.5.

Coastal Water Temperatures

Place Temperature

Stations

Nearby Weather Stations

Station Location Temp. Windchill Dew Point Humidity Wind Precip. Elev Updated Type
                   

Watches & Warnings

There are currently no watches in effect.